Main page
METAR-TAF:

METAR-TAF

Airports :

Biggs Army Airfield

Fort Bliss, Texas, United States

latitude: 31-50-58N, longitude: 106-22-48W, elevation: 3946 ft

METAR: missing

Time: 00:09 (06:09 UTC)

Forecast

The report was made 8 hours and 7 minutes ago, at 22:02 UTC
Forecast valid from 24 at 22 UTC to 26 at 04 UTC
Wind 10 mph from the West
Visibility 6.2 miles or more
Clear sky
Becoming
from 25 at 05 UTC to 25 at 06 UTC
Wind 10 mph from the West/Southwest
Visibility 6.2 miles or more
Few clouds at a height of 8000 ft
Becoming
from 25 at 14 UTC to 25 at 15 UTC
Wind 10 mph from the West/Northwest
Visibility 6.2 miles or more
Clear sky

TAF: KBIF 242202Z 2422/2604 27009KT 9999 SKC QNH2992INS BECMG 2505/2506 25009KT 9999 FEW080 QNH2997INS BECMG 2514/2515 30009KT 9999 SKC QNH2995INS TX32/2522Z TN18/2512Z

Weather observations and forecasts of more than 4000 airports (METAR and TAF reports).

The available stations are represented by yellow and red dots on the map.

Hover mouse over dot to see the name of the station.

Then click to see weather observations and forecasts.

To change the map : click on the green buttons with a black cross to zoom in, on the green button with a dash to zoom out, or on the green arrows for adjacent maps.


METAR-TAF: